sensor_id;sensor_type;location;lat;lon;timestamp;pressure;altitude;pressure_sealevel;temperature;humidity
36828;BME280;22766;48.042;11.192;2023-02-20T00:01:51;96019.50;;;6.73;100.00
36828;BME280;22766;48.042;11.192;2023-02-20T00:04:19;96021.88;;;6.76;100.00
36828;BME280;22766;48.042;11.192;2023-02-20T00:06:46;96034.28;;;6.70;100.00
36828;BME280;22766;48.042;11.192;2023-02-20T00:09:13;96028.22;;;6.83;100.00
36828;BME280;22766;48.042;11.192;2023-02-20T00:11:40;96027.19;;;6.86;100.00
36828;BME280;22766;48.042;11.192;2023-02-20T00:14:07;96022.66;;;6.77;100.00
36828;BME280;22766;48.042;11.192;2023-02-20T00:16:34;96035.50;;;6.77;100.00
36828;BME280;22766;48.042;11.192;2023-02-20T00:19:01;96038.19;;;6.63;100.00
36828;BME280;22766;48.042;11.192;2023-02-20T00:21:27;96029.75;;;6.48;100.00
36828;BME280;22766;48.042;11.192;2023-02-20T00:23:54;96029.75;;;6.48;100.00
36828;BME280;22766;48.042;11.192;2023-02-20T00:26:21;96036.63;;;6.60;100.00
36828;BME280;22766;48.042;11.192;2023-02-20T00:28:48;96036.75;;;6.58;100.00
36828;BME280;22766;48.042;11.192;2023-02-20T00:31:16;96033.78;;;6.65;100.00
36828;BME280;22766;48.042;11.192;2023-02-20T00:33:46;96030.88;;;6.69;100.00
36828;BME280;22766;48.042;11.192;2023-02-20T00:36:16;96034.91;;;6.60;100.00
36828;BME280;22766;48.042;11.192;2023-02-20T00:38:44;96039.00;;;6.38;100.00
36828;BME280;22766;48.042;11.192;2023-02-20T00:41:12;96035.50;;;6.39;100.00
36828;BME280;22766;48.042;11.192;2023-02-20T00:43:40;96046.19;;;6.45;100.00
36828;BME280;22766;48.042;11.192;2023-02-20T00:46:10;96032.31;;;6.73;100.00
36828;BME280;22766;48.042;11.192;2023-02-20T00:48:38;96029.75;;;6.48;100.00
36828;BME280;22766;48.042;11.192;2023-02-20T00:51:25;96029.97;;;6.70;100.00
36828;BME280;22766;48.042;11.192;2023-02-20T00:53:52;96028.94;;;6.60;100.00
36828;BME280;22766;48.042;11.192;2023-02-20T00:56:19;96029.97;;;6.70;100.00
36828;BME280;22766;48.042;11.192;2023-02-20T00:58:46;96033.13;;;6.86;100.00
36828;BME280;22766;48.042;11.192;2023-02-20T01:01:13;96037.25;;;6.63;100.00
36828;BME280;22766;48.042;11.192;2023-02-20T01:03:42;96032.22;;;6.37;100.00
36828;BME280;22766;48.042;11.192;2023-02-20T01:06:09;96028.22;;;6.58;100.00
36828;BME280;22766;48.042;11.192;2023-02-20T01:08:36;96027.81;;;6.64;100.00
36828;BME280;22766;48.042;11.192;2023-02-20T01:11:03;96032.03;;;6.78;100.00
36828;BME280;22766;48.042;11.192;2023-02-20T01:13:30;96033.16;;;6.74;100.00
36828;BME280;22766;48.042;11.192;2023-02-20T01:15:57;96035.09;;;6.57;100.00
36828;BME280;22766;48.042;11.192;2023-02-20T01:18:25;96035.09;;;6.57;100.00
36828;BME280;22766;48.042;11.192;2023-02-20T01:20:51;96037.66;;;6.57;100.00
36828;BME280;22766;48.042;11.192;2023-02-20T01:23:20;96030.69;;;6.47;100.00
36828;BME280;22766;48.042;11.192;2023-02-20T01:25:47;96038.72;;;6.55;100.00
36828;BME280;22766;48.042;11.192;2023-02-20T01:28:13;96039.41;;;6.70;100.00
36828;BME280;22766;48.042;11.192;2023-02-20T01:30:40;96030.47;;;6.50;100.00
36828;BME280;22766;48.042;11.192;2023-02-20T01:33:08;96042.06;;;6.30;100.00
36828;BME280;22766;48.042;11.192;2023-02-20T01:35:35;96041.66;;;6.61;100.00
36828;BME280;22766;48.042;11.192;2023-02-20T01:38:02;96032.34;;;6.60;100.00
36828;BME280;22766;48.042;11.192;2023-02-20T01:40:33;96041.28;;;6.55;100.00
36828;BME280;22766;48.042;11.192;2023-02-20T01:43:02;96034.28;;;6.57;100.00
36828;BME280;22766;48.042;11.192;2023-02-20T01:45:40;96035.09;;;6.70;100.00
36828;BME280;22766;48.042;11.192;2023-02-20T01:48:22;96034.59;;;6.52;100.00
36828;BME280;22766;48.042;11.192;2023-02-20T01:50:51;96029.75;;;6.35;100.00
36828;BME280;22766;48.042;11.192;2023-02-20T01:53:23;96021.66;;;6.41;100.00
36828;BME280;22766;48.042;11.192;2023-02-20T01:56:05;96033.66;;;6.28;100.00
36828;BME280;22766;48.042;11.192;2023-02-20T01:58:41;96020.22;;;6.37;100.00
36828;BME280;22766;48.042;11.192;2023-02-20T02:01:09;96016.63;;;6.27;100.00
36828;BME280;22766;48.042;11.192;2023-02-20T02:03:40;96011.50;;;6.27;100.00
36828;BME280;22766;48.042;11.192;2023-02-20T02:06:11;96007.91;;;6.30;100.00
36828;BME280;22766;48.042;11.192;2023-02-20T02:08:41;96006.75;;;6.21;100.00
36828;BME280;22766;48.042;11.192;2023-02-20T02:11:19;96008.41;;;6.22;100.00
36828;BME280;22766;48.042;11.192;2023-02-20T02:13:49;96001.22;;;6.27;100.00
36828;BME280;22766;48.042;11.192;2023-02-20T02:16:50;95998.69;;;6.52;100.00
36828;BME280;22766;48.042;11.192;2023-02-20T02:25:19;96009.44;;;6.57;100.00
36828;BME280;22766;48.042;11.192;2023-02-20T02:28:00;96020.13;;;6.51;100.00
36828;BME280;22766;48.042;11.192;2023-02-20T02:30:47;96013.94;;;6.29;100.00
36828;BME280;22766;48.042;11.192;2023-02-20T02:44:46;95989.75;;;6.08;100.00
36828;BME280;22766;48.042;11.192;2023-02-20T02:48:03;95993.13;;;6.08;100.00
36828;BME280;22766;48.042;11.192;2023-02-20T02:50:16;95997.28;;;5.97;100.00
36828;BME280;22766;48.042;11.192;2023-02-20T02:52:45;96003.75;;;6.02;100.00
36828;BME280;22766;48.042;11.192;2023-02-20T02:55:22;96000.13;;;6.19;100.00
36828;BME280;22766;48.042;11.192;2023-02-20T02:57:49;95994.38;;;6.15;100.00
36828;BME280;22766;48.042;11.192;2023-02-20T03:00:31;95999.78;;;6.11;100.00
36828;BME280;22766;48.042;11.192;2023-02-20T03:03:20;95993.75;;;6.24;100.00
36828;BME280;22766;48.042;11.192;2023-02-20T03:05:56;95983.38;;;6.26;100.00
36828;BME280;22766;48.042;11.192;2023-02-20T03:08:30;95981.13;;;6.21;100.00
36828;BME280;22766;48.042;11.192;2023-02-20T03:11:04;95980.75;;;6.40;100.00
36828;BME280;22766;48.042;11.192;2023-02-20T03:13:37;95985.44;;;6.33;100.00
36828;BME280;22766;48.042;11.192;2023-02-20T03:16:29;95985.81;;;6.02;100.00
36828;BME280;22766;48.042;11.192;2023-02-20T03:19:00;95986.88;;;6.12;100.00
36828;BME280;22766;48.042;11.192;2023-02-20T03:21:30;95982.66;;;6.24;100.00
36828;BME280;22766;48.042;11.192;2023-02-20T03:24:00;95979.19;;;6.25;100.00
36828;BME280;22766;48.042;11.192;2023-02-20T03:26:32;95993.03;;;6.22;100.00
36828;BME280;22766;48.042;11.192;2023-02-20T03:29:05;95992.50;;;6.05;100.00
36828;BME280;22766;48.042;11.192;2023-02-20T03:31:49;95987.69;;;6.13;100.00
36828;BME280;22766;48.042;11.192;2023-02-20T03:34:38;95988.69;;;5.98;100.00
36828;BME280;22766;48.042;11.192;2023-02-20T03:37:27;95992.50;;;5.65;100.00
36828;BME280;22766;48.042;11.192;2023-02-20T03:40:15;95990.34;;;5.72;100.00
36828;BME280;22766;48.042;11.192;2023-02-20T03:43:05;95990.38;;;5.45;100.00
36828;BME280;22766;48.042;11.192;2023-02-20T03:46:15;95993.03;;;5.44;100.00
36828;BME280;22766;48.042;11.192;2023-02-20T03:48:46;95989.09;;;5.26;100.00
36828;BME280;22766;48.042;11.192;2023-02-20T03:51:16;95980.06;;;5.20;100.00
36828;BME280;22766;48.042;11.192;2023-02-20T03:53:54;95974.59;;;5.12;100.00
36828;BME280;22766;48.042;11.192;2023-02-20T03:56:28;95981.91;;;5.04;100.00
36828;BME280;22766;48.042;11.192;2023-02-20T03:59:03;95992.03;;;5.06;100.00
36828;BME280;22766;48.042;11.192;2023-02-20T04:01:34;95997.00;;;5.09;100.00
36828;BME280;22766;48.042;11.192;2023-02-20T04:04:04;95991.06;;;4.94;100.00
36828;BME280;22766;48.042;11.192;2023-02-20T04:06:33;95991.53;;;4.87;100.00
36828;BME280;22766;48.042;11.192;2023-02-20T04:09:06;95989.78;;;4.87;100.00
36828;BME280;22766;48.042;11.192;2023-02-20T04:11:42;95989.53;;;4.92;100.00
36828;BME280;22766;48.042;11.192;2023-02-20T04:14:12;96000.75;;;4.75;100.00
36828;BME280;22766;48.042;11.192;2023-02-20T04:16:55;96002.69;;;4.71;100.00
36828;BME280;22766;48.042;11.192;2023-02-20T04:19:24;96010.81;;;4.64;100.00
36828;BME280;22766;48.042;11.192;2023-02-20T04:21:53;96000.13;;;4.86;100.00
36828;BME280;22766;48.042;11.192;2023-02-20T04:27:01;95996.84;;;4.84;100.00
36828;BME280;22766;48.042;11.192;2023-02-20T04:29:28;96007.69;;;5.01;100.00
36828;BME280;22766;48.042;11.192;2023-02-20T04:31:56;96007.81;;;4.86;100.00
36828;BME280;22766;48.042;11.192;2023-02-20T04:34:27;96005.72;;;4.64;100.00
36828;BME280;22766;48.042;11.192;2023-02-20T04:37:21;96002.22;;;4.79;100.00
36828;BME280;22766;48.042;11.192;2023-02-20T04:39:51;95997.03;;;4.66;100.00
36828;BME280;22766;48.042;11.192;2023-02-20T04:42:18;95993.66;;;4.66;100.00
36828;BME280;22766;48.042;11.192;2023-02-20T04:44:46;95993.50;;;4.69;100.00
36828;BME280;22766;48.042;11.192;2023-02-20T04:47:15;95993.59;;;4.53;100.00
36828;BME280;22766;48.042;11.192;2023-02-20T04:49:43;95987.28;;;4.59;100.00
36828;BME280;22766;48.042;11.192;2023-02-20T04:52:13;95988.63;;;4.64;100.00
36828;BME280;22766;48.042;11.192;2023-02-20T04:54:40;95981.63;;;4.54;100.00
36828;BME280;22766;48.042;11.192;2023-02-20T04:57:09;95979.50;;;4.46;100.00
36828;BME280;22766;48.042;11.192;2023-02-20T04:59:36;95980.50;;;4.30;100.00
36828;BME280;22766;48.042;11.192;2023-02-20T05:02:03;95970.94;;;4.19;100.00
36828;BME280;22766;48.042;11.192;2023-02-20T05:04:30;95980.88;;;4.10;100.00
36828;BME280;22766;48.042;11.192;2023-02-20T05:06:57;95978.94;;;4.13;100.00
36828;BME280;22766;48.042;11.192;2023-02-20T05:09:26;95973.19;;;4.10;100.00
36828;BME280;22766;48.042;11.192;2023-02-20T05:11:53;95971.81;;;4.04;100.00
36828;BME280;22766;48.042;11.192;2023-02-20T05:14:20;95971.28;;;4.13;100.00
36828;BME280;22766;48.042;11.192;2023-02-20T05:16:47;95965.69;;;4.07;100.00
36828;BME280;22766;48.042;11.192;2023-02-20T05:19:14;95969.91;;;4.08;100.00
36828;BME280;22766;48.042;11.192;2023-02-20T05:21:42;95971.44;;;3.96;100.00
36828;BME280;22766;48.042;11.192;2023-02-20T05:24:28;95972.13;;;3.84;100.00
36828;BME280;22766;48.042;11.192;2023-02-20T05:26:55;95979.25;;;3.79;100.00
36828;BME280;22766;48.042;11.192;2023-02-20T05:29:22;95970.75;;;3.78;100.00
36828;BME280;22766;48.042;11.192;2023-02-20T05:31:49;95974.25;;;3.77;100.00
36828;BME280;22766;48.042;11.192;2023-02-20T05:34:16;95979.84;;;3.98;100.00
36828;BME280;22766;48.042;11.192;2023-02-20T05:36:42;95982.44;;;3.83;100.00
36828;BME280;22766;48.042;11.192;2023-02-20T05:39:09;95990.53;;;3.75;100.00
36828;BME280;22766;48.042;11.192;2023-02-20T05:41:36;95994.63;;;3.93;100.00
36828;BME280;22766;48.042;11.192;2023-02-20T05:44:04;95996.00;;;3.99;100.00
36828;BME280;22766;48.042;11.192;2023-02-20T05:46:30;95998.59;;;3.83;100.00
36828;BME280;22766;48.042;11.192;2023-02-20T05:48:57;95998.16;;;3.91;100.00
36828;BME280;22766;48.042;11.192;2023-02-20T05:51:28;95996.59;;;3.88;100.00
36828;BME280;22766;48.042;11.192;2023-02-20T05:53:55;95999.88;;;3.90;100.00
36828;BME280;22766;48.042;11.192;2023-02-20T05:56:22;96002.13;;;4.10;100.00
36828;BME280;22766;48.042;11.192;2023-02-20T05:58:50;96003.47;;;4.02;100.00
36828;BME280;22766;48.042;11.192;2023-02-20T06:01:26;96011.78;;;4.05;100.00
36828;BME280;22766;48.042;11.192;2023-02-20T06:03:54;96003.38;;;3.89;100.00
36828;BME280;22766;48.042;11.192;2023-02-20T06:06:21;96010.53;;;3.83;100.00
36828;BME280;22766;48.042;11.192;2023-02-20T06:08:48;96008.25;;;4.08;100.00
36828;BME280;22766;48.042;11.192;2023-02-20T06:11:15;95999.28;;;4.01;100.00
36828;BME280;22766;48.042;11.192;2023-02-20T06:13:43;96011.13;;;4.02;100.00
36828;BME280;22766;48.042;11.192;2023-02-20T06:16:11;96012.97;;;4.00;100.00
36828;BME280;22766;48.042;11.192;2023-02-20T06:18:40;96011.53;;;3.80;100.00
36828;BME280;22766;48.042;11.192;2023-02-20T06:21:08;96017.91;;;4.03;100.00
36828;BME280;22766;48.042;11.192;2023-02-20T06:23:39;96024.56;;;3.75;100.00
36828;BME280;22766;48.042;11.192;2023-02-20T06:26:06;96031.63;;;3.86;100.00
36828;BME280;22766;48.042;11.192;2023-02-20T06:28:33;96026.66;;;3.99;100.00
36828;BME280;22766;48.042;11.192;2023-02-20T06:31:00;96033.09;;;3.90;100.00
36828;BME280;22766;48.042;11.192;2023-02-20T06:33:28;96028.47;;;3.97;100.00
36828;BME280;22766;48.042;11.192;2023-02-20T06:35:55;96028.13;;;4.03;100.00
36828;BME280;22766;48.042;11.192;2023-02-20T06:38:23;96025.97;;;3.95;100.00
36828;BME280;22766;48.042;11.192;2023-02-20T06:40:49;96031.78;;;4.13;100.00
36828;BME280;22766;48.042;11.192;2023-02-20T06:43:17;96036.03;;;4.42;100.00
36828;BME280;22766;48.042;11.192;2023-02-20T06:45:44;96028.19;;;4.59;100.00
36828;BME280;22766;48.042;11.192;2023-02-20T06:48:11;96030.09;;;4.84;100.00
36828;BME280;22766;48.042;11.192;2023-02-20T06:50:41;96036.31;;;4.94;100.00
36828;BME280;22766;48.042;11.192;2023-02-20T06:53:08;96030.19;;;4.82;100.00
36828;BME280;22766;48.042;11.192;2023-02-20T06:55:35;96035.38;;;4.95;100.00
36828;BME280;22766;48.042;11.192;2023-02-20T06:58:02;96036.94;;;4.97;100.00
36828;BME280;22766;48.042;11.192;2023-02-20T07:00:28;96045.88;;;5.04;100.00
36828;BME280;22766;48.042;11.192;2023-02-20T07:02:56;96038.94;;;5.20;100.00
36828;BME280;22766;48.042;11.192;2023-02-20T07:05:23;96034.34;;;5.25;100.00
36828;BME280;22766;48.042;11.192;2023-02-20T07:07:49;96043.66;;;5.26;100.00
36828;BME280;22766;48.042;11.192;2023-02-20T07:10:16;96046.50;;;5.22;100.00
36828;BME280;22766;48.042;11.192;2023-02-20T07:12:43;96035.72;;;5.17;100.00
36828;BME280;22766;48.042;11.192;2023-02-20T07:15:10;96031.31;;;5.33;100.00
36828;BME280;22766;48.042;11.192;2023-02-20T07:17:38;96036.72;;;5.55;100.00
36828;BME280;22766;48.042;11.192;2023-02-20T07:20:05;96041.84;;;5.55;100.00
36828;BME280;22766;48.042;11.192;2023-02-20T07:22:32;96044.59;;;5.52;100.00
36828;BME280;22766;48.042;11.192;2023-02-20T07:25:00;96043.97;;;5.48;100.00
36828;BME280;22766;48.042;11.192;2023-02-20T07:27:27;96038.16;;;5.59;100.00
36828;BME280;22766;48.042;11.192;2023-02-20T07:29:53;96043.03;;;5.76;100.00
36828;BME280;22766;48.042;11.192;2023-02-20T07:32:20;96034.78;;;5.58;100.00
36828;BME280;22766;48.042;11.192;2023-02-20T07:34:49;96031.78;;;5.79;100.00
36828;BME280;22766;48.042;11.192;2023-02-20T07:37:30;96035.44;;;5.89;100.00
36828;BME280;22766;48.042;11.192;2023-02-20T07:39:57;96043.16;;;6.14;100.00
36828;BME280;22766;48.042;11.192;2023-02-20T07:42:24;96031.91;;;6.16;100.00
36828;BME280;22766;48.042;11.192;2023-02-20T07:44:58;96032.84;;;6.28;100.00
36828;BME280;22766;48.042;11.192;2023-02-20T07:47:25;96041.25;;;6.42;100.00
36828;BME280;22766;48.042;11.192;2023-02-20T07:49:52;96043.19;;;6.39;100.00
36828;BME280;22766;48.042;11.192;2023-02-20T07:52:19;96045.22;;;6.21;100.00
36828;BME280;22766;48.042;11.192;2023-02-20T07:54:45;96036.63;;;6.22;100.00
36828;BME280;22766;48.042;11.192;2023-02-20T07:57:13;96041.84;;;6.46;100.00
36828;BME280;22766;48.042;11.192;2023-02-20T07:59:40;96038.09;;;6.64;100.00
36828;BME280;22766;48.042;11.192;2023-02-20T08:02:07;96038.78;;;6.53;100.00
36828;BME280;22766;48.042;11.192;2023-02-20T08:04:34;96030.91;;;6.82;100.00
36828;BME280;22766;48.042;11.192;2023-02-20T08:07:03;96023.13;;;7.19;100.00
36828;BME280;22766;48.042;11.192;2023-02-20T08:09:32;96017.16;;;7.19;100.00
36828;BME280;22766;48.042;11.192;2023-02-20T08:11:59;96017.34;;;7.28;100.00
36828;BME280;22766;48.042;11.192;2023-02-20T08:14:25;96004.78;;;7.60;100.00
36828;BME280;22766;48.042;11.192;2023-02-20T08:16:53;96010.38;;;7.89;100.00
36828;BME280;22766;48.042;11.192;2023-02-20T08:19:20;96008.13;;;8.19;100.00
36828;BME280;22766;48.042;11.192;2023-02-20T08:21:47;96008.38;;;7.81;100.00
36828;BME280;22766;48.042;11.192;2023-02-20T08:24:13;96003.16;;;7.59;100.00
36828;BME280;22766;48.042;11.192;2023-02-20T08:26:44;95997.91;;;7.37;100.00
36828;BME280;22766;48.042;11.192;2023-02-20T08:29:12;95995.31;;;7.37;100.00
36828;BME280;22766;48.042;11.192;2023-02-20T08:31:39;95996.34;;;7.82;100.00
36828;BME280;22766;48.042;11.192;2023-02-20T08:34:07;95992.44;;;7.65;100.00
36828;BME280;22766;48.042;11.192;2023-02-20T08:36:34;95992.34;;;7.78;100.00
36828;BME280;22766;48.042;11.192;2023-02-20T08:39:01;95983.72;;;7.79;100.00
36828;BME280;22766;48.042;11.192;2023-02-20T08:41:29;95983.72;;;7.79;99.98
36828;BME280;22766;48.042;11.192;2023-02-20T08:43:55;95996.81;;;7.87;100.00
36828;BME280;22766;48.042;11.192;2023-02-20T08:46:22;95999.72;;;8.17;98.66
36828;BME280;22766;48.042;11.192;2023-02-20T08:48:48;95985.44;;;8.59;93.25
36828;BME280;22766;48.042;11.192;2023-02-20T08:51:19;95984.59;;;8.36;96.00
36828;BME280;22766;48.042;11.192;2023-02-20T08:53:46;95983.34;;;8.07;98.43
36828;BME280;22766;48.042;11.192;2023-02-20T08:56:17;95981.38;;;8.21;96.18
36828;BME280;22766;48.042;11.192;2023-02-20T08:58:43;95985.56;;;8.11;98.54
36828;BME280;22766;48.042;11.192;2023-02-20T09:01:10;95979.69;;;8.44;98.05
36828;BME280;22766;48.042;11.192;2023-02-20T09:03:37;95979.81;;;8.98;96.37
36828;BME280;22766;48.042;11.192;2023-02-20T09:06:07;95973.13;;;9.60;90.47
36828;BME280;22766;48.042;11.192;2023-02-20T09:08:34;95970.97;;;9.76;86.32
36828;BME280;22766;48.042;11.192;2023-02-20T09:11:00;95964.38;;;9.52;86.41
36828;BME280;22766;48.042;11.192;2023-02-20T09:13:27;95963.16;;;9.56;84.25
36828;BME280;22766;48.042;11.192;2023-02-20T09:15:54;95957.91;;;9.57;85.08
36828;BME280;22766;48.042;11.192;2023-02-20T09:18:21;95947.22;;;9.82;84.71
36828;BME280;22766;48.042;11.192;2023-02-20T09:20:50;95951.78;;;9.90;82.31
36828;BME280;22766;48.042;11.192;2023-02-20T09:23:17;95949.78;;;9.93;80.21
36828;BME280;22766;48.042;11.192;2023-02-20T09:25:43;95954.19;;;10.44;82.96
36828;BME280;22766;48.042;11.192;2023-02-20T09:28:10;95937.34;;;10.79;74.13
36828;BME280;22766;48.042;11.192;2023-02-20T09:30:37;95934.34;;;10.74;72.21
36828;BME280;22766;48.042;11.192;2023-02-20T09:33:03;95930.72;;;10.77;75.37
36828;BME280;22766;48.042;11.192;2023-02-20T09:35:30;95929.25;;;10.93;71.42
36828;BME280;22766;48.042;11.192;2023-02-20T09:37:57;95932.41;;;10.67;74.16
36828;BME280;22766;48.042;11.192;2023-02-20T09:40:26;95940.13;;;11.56;69.80
36828;BME280;22766;48.042;11.192;2023-02-20T09:45:25;95933.91;;;11.87;63.83
36828;BME280;22766;48.042;11.192;2023-02-20T09:50:48;95928.78;;;12.23;65.71
36828;BME280;22766;48.042;11.192;2023-02-20T09:56:13;95934.63;;;13.18;60.53
36828;BME280;22766;48.042;11.192;2023-02-20T09:58:48;95922.25;;;13.47;55.22
36828;BME280;22766;48.042;11.192;2023-02-20T10:01:21;95929.81;;;13.58;57.75
36828;BME280;22766;48.042;11.192;2023-02-20T10:04:05;95917.81;;;13.92;56.37
36828;BME280;22766;48.042;11.192;2023-02-20T10:06:34;95903.63;;;14.48;50.61
36828;BME280;22766;48.042;11.192;2023-02-20T10:09:02;95888.22;;;14.54;49.78
36828;BME280;22766;48.042;11.192;2023-02-20T10:11:57;95885.03;;;14.60;48.39
36828;BME280;22766;48.042;11.192;2023-02-20T10:17:22;95890.94;;;14.45;49.94
36828;BME280;22766;48.042;11.192;2023-02-20T10:23:05;95885.28;;;13.80;49.05
36828;BME280;22766;48.042;11.192;2023-02-20T10:25:39;95878.72;;;14.37;52.07
36828;BME280;22766;48.042;11.192;2023-02-20T10:31:04;95885.19;;;15.66;45.42
36828;BME280;22766;48.042;11.192;2023-02-20T10:33:37;95873.38;;;15.22;44.99
36828;BME280;22766;48.042;11.192;2023-02-20T10:41:31;95868.94;;;15.07;48.12
36828;BME280;22766;48.042;11.192;2023-02-20T10:49:55;95856.88;;;15.47;45.42
36828;BME280;22766;48.042;11.192;2023-02-20T10:52:26;95850.22;;;15.61;43.84
36828;BME280;22766;48.042;11.192;2023-02-20T10:55:14;95845.31;;;15.90;43.39
36828;BME280;22766;48.042;11.192;2023-02-20T10:58:12;95842.72;;;15.98;43.45
36828;BME280;22766;48.042;11.192;2023-02-20T11:03:16;95824.00;;;16.65;43.28
36828;BME280;22766;48.042;11.192;2023-02-20T11:05:48;95830.09;;;17.19;41.10
36828;BME280;22766;48.042;11.192;2023-02-20T11:08:17;95828.22;;;17.36;39.83
36828;BME280;22766;48.042;11.192;2023-02-20T11:10:53;95826.78;;;17.25;39.85
36828;BME280;22766;48.042;11.192;2023-02-20T11:13:24;95817.44;;;17.08;38.83
36828;BME280;22766;48.042;11.192;2023-02-20T11:16:04;95810.22;;;16.49;41.47
36828;BME280;22766;48.042;11.192;2023-02-20T11:18:34;95808.97;;;17.59;39.27
36828;BME280;22766;48.042;11.192;2023-02-20T11:21:04;95802.22;;;18.02;38.53
36828;BME280;22766;48.042;11.192;2023-02-20T11:23:42;95792.97;;;18.29;38.67
36828;BME280;22766;48.042;11.192;2023-02-20T11:28:55;95792.00;;;18.59;37.08
36828;BME280;22766;48.042;11.192;2023-02-20T11:31:23;95785.88;;;18.52;37.16
36828;BME280;22766;48.042;11.192;2023-02-20T11:33:53;95790.56;;;19.07;35.88
36828;BME280;22766;48.042;11.192;2023-02-20T11:36:26;95790.78;;;19.47;34.95
36828;BME280;22766;48.042;11.192;2023-02-20T11:38:59;95790.66;;;19.77;33.73
36828;BME280;22766;48.042;11.192;2023-02-20T11:41:36;95792.97;;;19.65;33.37
36828;BME280;22766;48.042;11.192;2023-02-20T11:46:36;95776.84;;;20.17;32.74
36828;BME280;22766;48.042;11.192;2023-02-20T11:49:04;95777.09;;;20.22;33.03
36828;BME280;22766;48.042;11.192;2023-02-20T11:51:34;95769.72;;;20.32;32.06
36828;BME280;22766;48.042;11.192;2023-02-20T11:57:03;95761.44;;;19.52;34.06
36828;BME280;22766;48.042;11.192;2023-02-20T11:59:45;95757.31;;;19.92;32.56
36828;BME280;22766;48.042;11.192;2023-02-20T12:05:00;95754.31;;;19.46;32.80
36828;BME280;22766;48.042;11.192;2023-02-20T12:13:22;95746.63;;;21.02;31.03
36828;BME280;22766;48.042;11.192;2023-02-20T12:16:17;95736.84;;;20.83;29.29
36828;BME280;22766;48.042;11.192;2023-02-20T12:21:43;95728.31;;;20.27;31.76
36828;BME280;22766;48.042;11.192;2023-02-20T12:24:29;95728.47;;;21.14;30.49
36828;BME280;22766;48.042;11.192;2023-02-20T12:27:15;95717.00;;;21.74;29.61
36828;BME280;22766;48.042;11.192;2023-02-20T12:30:02;95712.56;;;21.81;29.32
36828;BME280;22766;48.042;11.192;2023-02-20T12:35:54;95707.63;;;22.17;29.50
36828;BME280;22766;48.042;11.192;2023-02-20T12:38:47;95700.69;;;22.49;28.80
36828;BME280;22766;48.042;11.192;2023-02-20T13:00:38;95692.59;;;22.94;25.59
36828;BME280;22766;48.042;11.192;2023-02-20T13:03:09;95688.31;;;22.62;25.43
36828;BME280;22766;48.042;11.192;2023-02-20T13:05:41;95679.78;;;21.51;26.40
36828;BME280;22766;48.042;11.192;2023-02-20T13:08:17;95673.31;;;21.66;28.73
36828;BME280;22766;48.042;11.192;2023-02-20T13:10:51;95683.25;;;22.48;26.96
36828;BME280;22766;48.042;11.192;2023-02-20T13:13:18;95673.84;;;22.27;28.66
36828;BME280;22766;48.042;11.192;2023-02-20T13:16:00;95673.00;;;22.84;27.60
36828;BME280;22766;48.042;11.192;2023-02-20T13:21:13;95671.03;;;23.42;27.59
36828;BME280;22766;48.042;11.192;2023-02-20T13:23:41;95676.19;;;23.23;27.86
36828;BME280;22766;48.042;11.192;2023-02-20T13:29:18;95669.25;;;23.60;25.57
36828;BME280;22766;48.042;11.192;2023-02-20T13:31:49;95666.50;;;23.17;27.00
36828;BME280;22766;48.042;11.192;2023-02-20T13:36:44;95669.06;;;24.04;25.62
36828;BME280;22766;48.042;11.192;2023-02-20T13:47:01;95661.28;;;23.11;26.42
36828;BME280;22766;48.042;11.192;2023-02-20T14:02:48;95635.16;;;21.24;27.56
36828;BME280;22766;48.042;11.192;2023-02-20T14:07:48;95629.06;;;22.78;27.06
36828;BME280;22766;48.042;11.192;2023-02-20T14:10:35;95631.19;;;22.63;27.29
36828;BME280;22766;48.042;11.192;2023-02-20T14:13:09;95627.03;;;22.80;26.22
36828;BME280;22766;48.042;11.192;2023-02-20T14:15:53;95622.97;;;22.40;27.35
36828;BME280;22766;48.042;11.192;2023-02-20T14:18:26;95627.47;;;22.77;26.96
36828;BME280;22766;48.042;11.192;2023-02-20T14:21:16;95621.28;;;22.96;26.97
36828;BME280;22766;48.042;11.192;2023-02-20T14:23:44;95612.50;;;23.94;25.43
36828;BME280;22766;48.042;11.192;2023-02-20T14:26:32;95614.44;;;23.87;24.58
36828;BME280;22766;48.042;11.192;2023-02-20T14:29:00;95608.94;;;23.88;24.56
36828;BME280;22766;48.042;11.192;2023-02-20T14:31:32;95608.06;;;23.52;24.24
36828;BME280;22766;48.042;11.192;2023-02-20T14:34:10;95602.34;;;22.43;25.62
36828;BME280;22766;48.042;11.192;2023-02-20T14:41:52;95591.63;;;22.76;26.53
36828;BME280;22766;48.042;11.192;2023-02-20T14:44:20;95589.56;;;23.58;24.75
36828;BME280;22766;48.042;11.192;2023-02-20T14:46:50;95584.38;;;23.70;24.64
36828;BME280;22766;48.042;11.192;2023-02-20T14:49:36;95583.34;;;23.53;24.73
36828;BME280;22766;48.042;11.192;2023-02-20T14:52:10;95577.56;;;23.62;24.67
36828;BME280;22766;48.042;11.192;2023-02-20T14:54:41;95579.13;;;22.96;25.83
36828;BME280;22766;48.042;11.192;2023-02-20T14:57:17;95576.88;;;23.49;24.72
36828;BME280;22766;48.042;11.192;2023-02-20T14:59:43;95569.66;;;23.62;24.66
36828;BME280;22766;48.042;11.192;2023-02-20T15:02:21;95570.16;;;23.71;24.22
36828;BME280;22766;48.042;11.192;2023-02-20T15:05:05;95562.47;;;23.51;24.27
36828;BME280;22766;48.042;11.192;2023-02-20T15:07:33;95557.78;;;22.42;26.23
36828;BME280;22766;48.042;11.192;2023-02-20T15:10:05;95557.25;;;22.71;25.80
36828;BME280;22766;48.042;11.192;2023-02-20T15:12:38;95553.09;;;22.12;26.58
36828;BME280;22766;48.042;11.192;2023-02-20T15:15:07;95558.94;;;23.14;26.07
36828;BME280;22766;48.042;11.192;2023-02-20T15:17:37;95562.41;;;22.84;25.64
36828;BME280;22766;48.042;11.192;2023-02-20T15:22:45;95558.34;;;23.37;24.65
36828;BME280;22766;48.042;11.192;2023-02-20T15:27:38;95546.50;;;22.97;24.61